createdAt,value
2018-09-17T00:02:26.582Z,8.97
2018-09-17T00:04:55.468Z,9.80
2018-09-17T00:07:24.524Z,9.50
2018-09-17T00:09:53.285Z,10.13
2018-09-17T00:12:22.889Z,9.67
2018-09-17T00:14:52.389Z,9.97
2018-09-17T00:17:21.079Z,9.63
2018-09-17T00:19:49.897Z,10.20
2018-09-17T00:22:18.819Z,10.37
2018-09-17T00:24:48.891Z,9.13
2018-09-17T00:27:17.652Z,9.43
2018-09-17T00:29:47.580Z,10.60
2018-09-17T00:32:16.355Z,9.57
2018-09-17T00:34:45.191Z,8.57
2018-09-17T00:37:14.144Z,8.90
2018-09-17T00:39:43.020Z,9.33
2018-09-17T00:42:13.609Z,10.77
2018-09-17T00:44:42.366Z,9.03
2018-09-17T00:47:11.139Z,8.87
2018-09-17T00:49:40.068Z,9.80
2018-09-17T00:52:08.869Z,8.87
2018-09-17T00:54:38.438Z,9.30
2018-09-17T00:57:08.234Z,9.10
2018-09-17T00:59:36.982Z,10.63
2018-09-17T01:02:06.134Z,9.30
2018-09-17T01:04:34.907Z,10.40
2018-09-17T01:07:03.907Z,9.77
2018-09-17T01:09:39.244Z,9.53
2018-09-17T01:12:08.459Z,9.30
2018-09-17T01:14:37.311Z,10.37
2018-09-17T01:17:06.842Z,8.60
2018-09-17T01:19:36.663Z,9.73
2018-09-17T01:22:05.538Z,9.87
2018-09-17T01:24:34.392Z,10.93
2018-09-17T01:27:03.864Z,8.90
2018-09-17T01:29:33.311Z,9.70
2018-09-17T01:32:02.126Z,9.67
2018-09-17T01:34:31.443Z,10.07
2018-09-17T01:37:00.554Z,9.00
2018-09-17T01:39:30.348Z,10.80
2018-09-17T01:41:59.256Z,11.03
2018-09-17T01:44:28.752Z,10.10
2018-09-17T01:46:58.868Z,10.57
2018-09-17T01:49:27.742Z,10.00
2018-09-17T01:51:56.900Z,10.10
2018-09-17T01:54:25.707Z,10.53
2018-09-17T01:56:55.409Z,10.00
2018-09-17T01:59:24.212Z,10.20
2018-09-17T02:01:52.925Z,10.70
2018-09-17T02:04:21.945Z,9.90
2018-09-17T02:06:50.899Z,9.50
2018-09-17T02:09:19.596Z,10.90
2018-09-17T02:11:48.365Z,9.40
2018-09-17T02:14:17.254Z,11.93
2018-09-17T02:16:46.206Z,11.10
2018-09-17T02:19:15.074Z,11.43
2018-09-17T02:21:43.886Z,10.93
2018-09-17T02:24:12.921Z,11.23
2018-09-17T02:26:41.820Z,10.70
2018-09-17T02:29:10.628Z,11.03
2018-09-17T02:31:40.500Z,11.57
2018-09-17T02:34:10.264Z,10.53
2018-09-17T02:36:39.035Z,11.93
2018-09-17T02:39:09.046Z,11.20
2018-09-17T02:41:38.272Z,11.30
2018-09-17T02:44:07.757Z,13.67
2018-09-17T02:46:37.727Z,12.67
2018-09-17T02:49:07.830Z,13.13
2018-09-17T02:51:36.772Z,13.27
2018-09-17T02:54:05.761Z,12.83
2018-09-17T02:56:34.511Z,13.70
2018-09-17T02:59:03.464Z,13.67
2018-09-17T03:01:33.496Z,14.80
2018-09-17T03:04:02.459Z,14.00
2018-09-17T03:06:31.982Z,13.83
2018-09-17T03:09:00.716Z,14.23
2018-09-17T03:11:29.713Z,14.13
2018-09-17T03:13:58.979Z,15.43
2018-09-17T03:16:28.042Z,14.03
2018-09-17T03:19:02.043Z,14.70
2018-09-17T03:21:32.601Z,14.10
2018-09-17T03:24:01.810Z,14.37
2018-09-17T03:26:32.114Z,15.10
2018-09-17T03:29:01.656Z,15.23
2018-09-17T03:31:33.952Z,14.73
2018-09-17T03:36:41.529Z,14.83
2018-09-17T03:39:10.390Z,16.40
2018-09-17T03:41:40.306Z,14.20
2018-09-17T03:44:09.221Z,15.23
2018-09-17T03:46:38.644Z,14.60
2018-09-17T03:49:07.840Z,14.53
2018-09-17T03:51:36.585Z,14.13
2018-09-17T03:54:05.342Z,14.73
2018-09-17T03:56:34.228Z,15.17
2018-09-17T03:59:03.662Z,15.57
2018-09-17T04:01:34.199Z,13.80
2018-09-17T04:04:02.949Z,13.80
2018-09-17T04:06:32.257Z,16.13
2018-09-17T04:09:01.049Z,14.00
2018-09-17T04:11:29.897Z,16.90
2018-09-17T04:13:58.720Z,16.63
2018-09-17T04:16:27.602Z,14.03
2018-09-17T04:18:57.480Z,15.20
2018-09-17T04:21:27.117Z,15.53
2018-09-17T04:23:56.068Z,16.40
2018-09-17T04:26:24.944Z,15.83
2018-09-17T04:28:54.126Z,15.10
2018-09-17T04:31:23.017Z,14.70
2018-09-17T04:33:53.414Z,15.10
2018-09-17T04:36:23.538Z,15.27
2018-09-17T04:38:52.466Z,16.27
2018-09-17T04:41:22.118Z,15.77
2018-09-17T04:43:50.967Z,15.60
2018-09-17T04:46:20.009Z,17.63
2018-09-17T04:48:48.906Z,16.30
2018-09-17T04:51:24.367Z,17.47
2018-09-17T04:53:53.124Z,18.30
2018-09-17T04:56:21.966Z,15.77
2018-09-17T04:58:51.926Z,16.27
2018-09-17T05:01:20.761Z,17.40
2018-09-17T05:03:51.171Z,16.93
2018-09-17T05:06:20.309Z,18.27
2018-09-17T05:08:49.344Z,16.17
2018-09-17T05:11:18.225Z,16.63
2018-09-17T05:13:48.568Z,15.73
2018-09-17T05:16:18.404Z,16.40
2018-09-17T05:18:47.315Z,16.67
2018-09-17T05:21:17.009Z,17.53
2018-09-17T05:23:46.895Z,16.70
2018-09-17T05:26:16.056Z,17.20
2018-09-17T05:28:44.967Z,15.60
2018-09-17T05:31:16.282Z,16.30
2018-09-17T05:33:45.546Z,16.70
2018-09-17T05:36:15.489Z,16.50
2018-09-17T05:38:44.557Z,14.60
2018-09-17T05:41:13.342Z,15.40
2018-09-17T05:43:42.561Z,16.57
2018-09-17T05:46:11.843Z,15.00
2018-09-17T05:48:40.819Z,14.90
2018-09-17T05:51:09.885Z,14.97
2018-09-17T05:53:38.744Z,14.97
2018-09-17T05:56:07.584Z,16.00
2018-09-17T05:58:37.296Z,15.00
2018-09-17T06:01:06.388Z,14.37
2018-09-17T06:03:35.229Z,15.03
2018-09-17T06:06:04.318Z,15.03
2018-09-17T06:08:34.052Z,14.50
2018-09-17T06:11:02.920Z,14.83
2018-09-17T06:13:32.625Z,14.00
2018-09-17T06:16:01.704Z,13.47
2018-09-17T06:18:30.480Z,13.83
2018-09-17T06:21:00.717Z,13.23
2018-09-17T06:23:30.147Z,13.90
2018-09-17T06:25:59.004Z,13.13
2018-09-17T06:28:27.938Z,13.63
2018-09-17T06:30:57.616Z,13.30
2018-09-17T06:33:26.414Z,12.47
2018-09-17T06:35:55.339Z,12.07
2018-09-17T06:38:25.303Z,11.97
2018-09-17T06:40:54.021Z,11.67
2018-09-17T06:43:23.308Z,13.00
2018-09-17T06:45:52.269Z,11.90
2018-09-17T06:48:21.451Z,12.97
2018-09-17T06:50:50.445Z,13.10
2018-09-17T06:53:19.282Z,11.70
2018-09-17T06:55:49.054Z,11.50
2018-09-17T06:58:18.595Z,12.43
2018-09-17T07:00:47.502Z,12.67
2018-09-17T07:03:17.007Z,12.03
2018-09-17T07:05:46.391Z,12.17
2018-09-17T07:08:15.278Z,13.17
2018-09-17T07:10:45.542Z,13.30
2018-09-17T07:13:15.642Z,12.57
2018-09-17T07:15:44.516Z,11.80
2018-09-17T07:18:13.252Z,10.13
2018-09-17T07:20:42.189Z,10.77
2018-09-17T07:23:11.133Z,12.10
2018-09-17T07:25:40.094Z,11.40
2018-09-17T07:28:09.525Z,10.40
2018-09-17T07:30:38.442Z,11.20
2018-09-17T07:33:08.860Z,10.33
2018-09-17T07:35:37.863Z,10.33
2018-09-17T07:38:07.385Z,9.33
2018-09-17T07:40:36.159Z,9.07
2018-09-17T07:43:05.130Z,9.60
2018-09-17T07:45:35.822Z,9.27
2018-09-17T07:48:05.178Z,9.43
2018-09-17T07:50:34.740Z,8.07
2018-09-17T07:53:04.526Z,9.53
2018-09-17T07:55:34.998Z,7.90
2018-09-17T07:58:03.911Z,7.90
2018-09-17T08:00:32.752Z,8.27
2018-09-17T08:03:02.331Z,7.40
2018-09-17T08:05:31.232Z,7.63
2018-09-17T08:08:00.439Z,7.40
2018-09-17T08:10:29.413Z,6.40
2018-09-17T08:12:58.264Z,6.77
2018-09-17T08:15:27.104Z,6.67
2018-09-17T08:17:56.232Z,6.90
2018-09-17T08:20:27.230Z,6.43
2018-09-17T08:22:56.079Z,6.27
2018-09-17T08:25:26.389Z,6.20
2018-09-17T08:27:55.146Z,5.73
2018-09-17T08:30:24.012Z,5.97
2018-09-17T08:32:53.122Z,5.27
2018-09-17T08:35:22.059Z,6.17
2018-09-17T08:37:50.927Z,6.13
2018-09-17T08:40:21.358Z,5.00
2018-09-17T08:42:50.395Z,5.23
2018-09-17T08:45:19.804Z,4.83
2018-09-17T08:47:49.015Z,4.87
2018-09-17T08:50:18.958Z,5.30
2018-09-17T08:52:47.984Z,4.90
2018-09-17T08:55:22.395Z,4.87
2018-09-17T08:57:56.781Z,4.90
2018-09-17T09:00:31.264Z,4.60
2018-09-17T09:03:05.747Z,5.33
2018-09-17T09:05:39.143Z,4.70
2018-09-17T09:08:09.023Z,4.10
2018-09-17T09:10:43.774Z,4.13
2018-09-17T09:13:18.317Z,4.83
2018-09-17T09:15:48.179Z,4.37
2018-09-17T09:18:17.281Z,4.10
2018-09-17T09:20:48.222Z,4.13
2018-09-17T09:23:18.105Z,4.03
2018-09-17T09:25:47.022Z,3.60
2018-09-17T09:28:15.994Z,3.13
2018-09-17T09:30:44.861Z,3.40
2018-09-17T09:33:13.834Z,3.37
2018-09-17T09:35:45.442Z,4.30
2018-09-17T09:38:15.356Z,3.43
2018-09-17T09:40:47.746Z,3.70
2018-09-17T09:43:16.575Z,3.90
2018-09-17T09:45:45.548Z,3.40
2018-09-17T09:48:14.757Z,3.80
2018-09-17T09:50:44.197Z,3.77
2018-09-17T09:53:13.173Z,3.40
2018-09-17T09:55:42.423Z,3.30
2018-09-17T09:58:11.148Z,3.27
2018-09-17T10:00:45.682Z,3.70
2018-09-17T10:03:20.901Z,3.77
2018-09-17T10:05:50.800Z,3.43
2018-09-17T10:08:19.706Z,2.97
2018-09-17T10:10:55.309Z,3.03
2018-09-17T10:13:29.786Z,3.20
2018-09-17T10:16:03.192Z,3.60
2018-09-17T10:18:37.639Z,3.13
2018-09-17T10:21:06.486Z,2.80
2018-09-17T10:23:35.502Z,2.97
2018-09-17T10:26:04.878Z,3.40
2018-09-17T10:28:34.188Z,3.17
2018-09-17T10:31:03.080Z,3.00
2018-09-17T10:33:32.733Z,3.20
2018-09-17T10:36:01.628Z,2.80
2018-09-17T10:38:30.483Z,3.20
2018-09-17T10:40:59.397Z,2.50
2018-09-17T10:43:28.525Z,2.33
2018-09-17T10:45:57.513Z,2.37
2018-09-17T10:48:26.998Z,2.60
2018-09-17T10:50:56.097Z,2.97
2018-09-17T10:53:25.735Z,2.83
2018-09-17T10:55:54.594Z,2.50
2018-09-17T10:58:24.236Z,3.10
2018-09-17T11:00:53.258Z,2.47
2018-09-17T11:03:22.734Z,2.10
2018-09-17T11:05:51.624Z,2.13
2018-09-17T11:08:21.066Z,2.27
2018-09-17T11:10:50.039Z,2.30
2018-09-17T11:13:18.861Z,2.10
2018-09-17T11:15:48.988Z,2.10
2018-09-17T11:18:18.421Z,2.30
2018-09-17T11:20:49.957Z,2.33
2018-09-17T11:23:19.632Z,2.70
2018-09-17T11:25:48.682Z,2.50
2018-09-17T11:28:17.591Z,2.50
2018-09-17T11:30:48.367Z,2.50
2018-09-17T11:33:20.187Z,2.43
2018-09-17T11:35:52.772Z,2.73
2018-09-17T11:38:21.668Z,2.90
2018-09-17T11:40:51.941Z,2.23
2018-09-17T11:43:21.203Z,2.60
2018-09-17T11:45:50.653Z,2.90
2018-09-17T11:48:20.503Z,2.90
2018-09-17T11:50:50.293Z,3.13
2018-09-17T11:53:19.384Z,2.63
2018-09-17T11:55:48.525Z,2.20
2018-09-17T11:58:17.312Z,2.00
2018-09-17T12:00:51.931Z,2.10
2018-09-17T12:03:26.474Z,2.00
2018-09-17T12:06:04.327Z,2.50
2018-09-17T12:08:33.075Z,2.50
2018-09-17T12:11:01.909Z,2.23
2018-09-17T12:13:30.952Z,2.60
2018-09-17T12:16:00.664Z,2.40
2018-09-17T12:18:29.470Z,2.13
2018-09-17T12:20:59.022Z,2.27
2018-09-17T12:23:27.910Z,2.60
2018-09-17T12:25:58.587Z,2.40
2018-09-17T12:28:29.109Z,2.50
2018-09-17T12:31:00.146Z,2.50
2018-09-17T12:33:29.667Z,2.20
2018-09-17T12:35:59.811Z,2.23
2018-09-17T12:38:29.520Z,2.60
2018-09-17T12:41:00.532Z,1.70
2018-09-17T12:43:30.478Z,1.90
2018-09-17T12:46:01.292Z,1.60
2018-09-17T12:48:30.278Z,1.97
2018-09-17T12:51:00.538Z,1.83
2018-09-17T12:53:31.384Z,2.10
2018-09-17T12:56:01.970Z,2.10
2018-09-17T12:58:32.687Z,2.30
2018-09-17T13:01:01.777Z,1.87
2018-09-17T13:03:33.181Z,1.90
2018-09-17T13:06:02.814Z,1.83
2018-09-17T13:08:32.548Z,2.17
2018-09-17T13:11:02.794Z,2.10
2018-09-17T13:13:32.008Z,2.30
2018-09-17T13:16:06.195Z,2.07
2018-09-17T13:18:35.527Z,1.97
2018-09-17T13:21:05.023Z,1.90
2018-09-17T13:26:07.308Z,2.00
2018-09-17T13:28:37.143Z,2.00
2018-09-17T13:31:06.030Z,2.30
2018-09-17T13:33:35.075Z,2.27
2018-09-17T13:36:04.695Z,2.13
2018-09-17T13:38:34.404Z,1.90
2018-09-17T13:41:05.679Z,2.50
2018-09-17T13:43:35.174Z,2.33
2018-09-17T13:46:04.112Z,1.97
2018-09-17T13:48:32.972Z,2.30
2018-09-17T13:51:01.816Z,2.10
2018-09-17T13:53:30.890Z,2.00
2018-09-17T13:55:59.877Z,2.80
2018-09-17T13:58:28.505Z,2.50
2018-09-17T14:00:57.223Z,2.33
2018-09-17T14:03:26.039Z,2.23
2018-09-17T14:05:56.022Z,2.33
2018-09-17T14:08:24.881Z,2.80
2018-09-17T14:10:53.468Z,3.10
2018-09-17T14:13:22.459Z,2.73
2018-09-17T14:15:56.827Z,2.73
2018-09-17T14:18:25.882Z,2.80
2018-09-17T14:20:54.634Z,2.33
2018-09-17T14:23:24.290Z,3.20
2018-09-17T14:25:53.078Z,3.00
2018-09-17T14:28:21.830Z,2.50
2018-09-17T14:30:50.751Z,2.80
2018-09-17T14:33:24.822Z,2.87
2018-09-17T14:35:53.492Z,2.93
2018-09-17T14:38:22.369Z,2.70
2018-09-17T14:40:51.027Z,2.93
2018-09-17T14:43:19.925Z,2.47
2018-09-17T14:45:48.923Z,4.50
2018-09-17T14:48:17.880Z,3.37
2018-09-17T14:50:46.639Z,3.07
2018-09-17T14:53:16.439Z,4.10
2018-09-17T14:55:45.465Z,3.20
2018-09-17T14:58:14.455Z,4.60
2018-09-17T15:00:43.409Z,3.13
2018-09-17T15:03:12.552Z,2.80
2018-09-17T15:05:45.992Z,2.30
2018-09-17T15:08:15.803Z,2.63
2018-09-17T15:10:45.945Z,3.03
2018-09-17T15:13:15.869Z,2.20
2018-09-17T15:15:46.305Z,3.40
2018-09-17T15:18:16.208Z,1.63
2018-09-17T15:20:47.811Z,2.20
2018-09-17T15:23:19.270Z,2.63
2018-09-17T15:25:50.206Z,2.33
2018-09-17T15:28:20.617Z,2.37
2018-09-17T15:30:52.292Z,2.50
2018-09-17T15:33:21.366Z,2.60
2018-09-17T15:35:51.103Z,1.90
2018-09-17T15:38:19.900Z,2.37
2018-09-17T15:40:51.021Z,2.30
2018-09-17T15:43:20.425Z,2.80
2018-09-17T15:45:49.344Z,2.97
2018-09-17T15:48:18.218Z,2.40
2018-09-17T15:50:46.958Z,1.87
2018-09-17T15:53:15.918Z,2.43
2018-09-17T15:55:45.167Z,2.13
2018-09-17T15:58:14.901Z,2.20
2018-09-17T16:00:43.835Z,2.00
2018-09-17T16:03:12.864Z,2.23
2018-09-17T16:05:41.631Z,2.07
2018-09-17T16:08:11.015Z,2.27
2018-09-17T16:10:43.341Z,2.53
2018-09-17T16:13:12.126Z,2.87
2018-09-17T16:15:41.232Z,2.27
2018-09-17T16:18:10.077Z,2.60
2018-09-17T16:20:39.474Z,2.17
2018-09-17T16:23:08.924Z,2.00
2018-09-17T16:25:38.002Z,2.10
2018-09-17T16:28:07.588Z,2.53
2018-09-17T16:30:38.822Z,2.33
2018-09-17T16:33:08.712Z,1.63
2018-09-17T16:35:40.494Z,2.77
2018-09-17T16:38:13.694Z,2.60
2018-09-17T16:40:44.275Z,2.20
2018-09-17T16:43:15.296Z,2.17
2018-09-17T16:45:44.345Z,2.23
2018-09-17T16:48:13.660Z,2.20
2018-09-17T16:50:43.386Z,2.57
2018-09-17T16:53:14.015Z,2.30
2018-09-17T16:55:47.918Z,2.30
2018-09-17T16:58:20.960Z,2.30
2018-09-17T17:00:52.214Z,2.37
2018-09-17T17:03:23.258Z,2.77
2018-09-17T17:05:55.383Z,2.80
2018-09-17T17:08:25.591Z,2.30
2018-09-17T17:10:54.706Z,2.70
2018-09-17T17:13:23.514Z,2.60
2018-09-17T17:15:54.412Z,2.50
2018-09-17T17:18:25.577Z,2.10
2018-09-17T17:20:54.501Z,2.57
2018-09-17T17:23:23.389Z,2.23
2018-09-17T17:25:52.164Z,2.77
2018-09-17T17:28:21.427Z,2.63
2018-09-17T17:30:50.914Z,3.50
2018-09-17T17:33:21.130Z,3.30
2018-09-17T17:35:50.724Z,2.60
2018-09-17T17:38:19.575Z,2.80
2018-09-17T17:40:48.640Z,2.80
2018-09-17T17:43:17.488Z,2.30
2018-09-17T17:45:48.307Z,2.50
2018-09-17T17:48:17.061Z,3.00
2018-09-17T17:50:46.043Z,2.90
2018-09-17T17:53:14.895Z,2.30
2018-09-17T17:55:44.462Z,2.30
2018-09-17T17:58:13.581Z,2.30
2018-09-17T18:00:43.476Z,2.67
2018-09-17T18:03:12.345Z,2.67
2018-09-17T18:05:41.047Z,3.00
2018-09-17T18:08:10.578Z,2.70
2018-09-17T18:10:39.776Z,2.97
2018-09-17T18:13:10.195Z,2.50
2018-09-17T18:15:39.368Z,2.43
2018-09-17T18:18:11.308Z,3.37
2018-09-17T18:20:41.710Z,3.43
2018-09-17T18:23:10.999Z,2.90
2018-09-17T18:25:40.713Z,2.97
2018-09-17T18:28:10.222Z,2.87
2018-09-17T18:30:39.363Z,3.23
2018-09-17T18:33:09.097Z,2.93
2018-09-17T18:35:37.791Z,2.97
2018-09-17T18:38:07.456Z,3.07
2018-09-17T18:40:36.569Z,3.10
2018-09-17T18:43:06.937Z,3.50
2018-09-17T18:45:36.059Z,3.30
2018-09-17T18:48:06.129Z,3.07
2018-09-17T18:50:35.415Z,3.23
2018-09-17T18:53:04.232Z,3.40
2018-09-17T18:55:34.204Z,3.10
2018-09-17T18:58:04.468Z,3.40
2018-09-17T19:00:33.200Z,3.80
2018-09-17T19:03:02.000Z,3.40
2018-09-17T19:05:31.024Z,3.67
2018-09-17T19:08:01.959Z,3.70
2018-09-17T19:10:30.635Z,3.20
2018-09-17T19:12:59.443Z,3.83
2018-09-17T19:15:34.602Z,3.90
2018-09-17T19:18:09.227Z,3.70
2018-09-17T19:20:38.335Z,3.73
2018-09-17T19:23:14.028Z,4.30
2018-09-17T19:25:44.210Z,4.10
2018-09-17T19:28:18.835Z,4.33
2018-09-17T19:30:48.814Z,3.90
2018-09-17T19:33:19.170Z,4.07
2018-09-17T19:35:47.912Z,4.47
2018-09-17T19:38:22.557Z,4.50
2018-09-17T19:40:51.569Z,4.33
2018-09-17T19:43:20.274Z,4.40
2018-09-17T19:45:55.242Z,4.70
2018-09-17T19:48:24.143Z,4.80
2018-09-17T19:51:00.115Z,5.63
2018-09-17T19:53:28.957Z,5.50
2018-09-17T19:55:58.046Z,5.77
2018-09-17T19:58:33.181Z,5.50
2018-09-17T20:01:02.044Z,5.20
2018-09-17T20:03:30.822Z,5.70
2018-09-17T20:06:05.141Z,5.30
2018-09-17T20:08:34.259Z,5.80
2018-09-17T20:11:02.929Z,6.27
2018-09-17T20:13:32.585Z,5.60
2018-09-17T20:16:01.935Z,5.83
2018-09-17T20:18:31.645Z,4.93
2018-09-17T20:21:01.407Z,5.40
2018-09-17T20:23:30.684Z,5.53
2018-09-17T20:25:59.812Z,4.97
2018-09-17T20:28:28.562Z,5.37
2018-09-17T20:30:57.284Z,5.13
2018-09-17T20:33:30.297Z,6.30
2018-09-17T20:35:59.180Z,5.40
2018-09-17T20:38:29.059Z,5.23
2018-09-17T20:40:58.005Z,5.10
2018-09-17T20:43:27.687Z,4.97
2018-09-17T20:45:58.824Z,5.30
2018-09-17T20:48:30.651Z,5.23
2018-09-17T20:50:59.641Z,5.87
2018-09-17T20:53:28.694Z,6.93
2018-09-17T20:56:00.583Z,5.40
2018-09-17T20:58:30.783Z,6.20
2018-09-17T21:00:59.731Z,5.47
2018-09-17T21:03:31.597Z,5.87
2018-09-17T21:06:02.556Z,5.10
2018-09-17T21:08:35.369Z,5.87
2018-09-17T21:11:05.141Z,5.90
2018-09-17T21:13:35.895Z,6.00
2018-09-17T21:16:05.575Z,5.80
2018-09-17T21:18:37.651Z,5.80
2018-09-17T21:21:10.695Z,5.23
2018-09-17T21:23:41.022Z,6.60
2018-09-17T21:26:12.690Z,6.37
2018-09-17T21:28:41.720Z,5.90
2018-09-17T21:31:12.120Z,6.60
2018-09-17T21:33:41.818Z,6.40
2018-09-17T21:36:12.081Z,7.03
2018-09-17T21:38:41.763Z,5.90
2018-09-17T21:41:13.550Z,5.70
2018-09-17T21:43:46.534Z,6.77
2018-09-17T21:46:15.578Z,6.50
2018-09-17T21:48:44.697Z,6.40
2018-09-17T21:51:15.165Z,6.47
2018-09-17T21:53:47.457Z,6.63
2018-09-17T21:56:19.654Z,5.80
2018-09-17T21:58:49.554Z,6.30
2018-09-17T22:01:19.802Z,5.90
2018-09-17T22:03:51.116Z,6.33
2018-09-17T22:08:57.165Z,6.00
2018-09-17T22:11:29.374Z,6.07
2018-09-17T22:13:59.494Z,5.53
2018-09-17T22:16:29.011Z,6.17
2018-09-17T22:18:58.771Z,5.20
2018-09-17T22:21:27.997Z,6.30
2018-09-17T22:23:58.131Z,5.70
2018-09-17T22:26:27.733Z,6.00
2018-09-17T22:28:58.012Z,6.50
2018-09-17T22:31:30.196Z,6.03
2018-09-17T22:34:01.974Z,5.60
2018-09-17T22:36:33.218Z,6.40
2018-09-17T22:39:02.951Z,5.10
2018-09-17T22:41:34.350Z,6.33
2018-09-17T22:44:04.889Z,5.90
2018-09-17T22:46:35.748Z,6.20
2018-09-17T22:49:06.964Z,6.33
2018-09-17T22:51:37.342Z,6.63
2018-09-17T22:54:07.099Z,7.27
2018-09-17T22:56:38.649Z,6.50
2018-09-17T22:59:09.320Z,6.87
2018-09-17T23:01:43.244Z,6.73
2018-09-17T23:04:14.366Z,6.70
2018-09-17T23:06:44.475Z,6.30
2018-09-17T23:09:15.843Z,7.30
2018-09-17T23:11:47.881Z,7.87
2018-09-17T23:14:17.503Z,7.57
2018-09-17T23:16:48.096Z,8.60
2018-09-17T23:19:20.675Z,8.07
2018-09-17T23:21:51.903Z,8.83
2018-09-17T23:24:22.824Z,9.47
2018-09-17T23:26:56.781Z,10.17
2018-09-17T23:29:27.947Z,8.90
2018-09-17T23:31:59.809Z,7.80
2018-09-17T23:34:30.599Z,8.07
2018-09-17T23:37:01.359Z,8.03
2018-09-17T23:39:37.838Z,7.90
2018-09-17T23:42:14.968Z,8.23
2018-09-17T23:44:44.675Z,8.87
2018-09-17T23:47:14.664Z,8.03
2018-09-17T23:49:45.653Z,8.30
2018-09-17T23:52:16.100Z,7.90
2018-09-17T23:54:47.606Z,8.03
2018-09-17T23:57:17.329Z,6.90
2018-09-17T23:59:50.753Z,7.67
